sensor_id;sensor_type;location;lat;lon;timestamp;P1;durP1;ratioP1;P2;durP2;ratioP2
33824;SDS011;20127;48.962;8.342;2022-12-07T00:01:49;27.52;;;13.35;;
33824;SDS011;20127;48.962;8.342;2022-12-07T00:04:50;26.58;;;15.55;;
33824;SDS011;20127;48.962;8.342;2022-12-07T00:07:53;22.10;;;13.80;;
33824;SDS011;20127;48.962;8.342;2022-12-07T00:10:59;21.42;;;14.63;;
33824;SDS011;20127;48.962;8.342;2022-12-07T00:14:03;23.70;;;15.30;;
33824;SDS011;20127;48.962;8.342;2022-12-07T00:17:07;24.27;;;14.55;;
33824;SDS011;20127;48.962;8.342;2022-12-07T00:20:09;26.50;;;15.18;;
33824;SDS011;20127;48.962;8.342;2022-12-07T00:23:12;24.63;;;15.00;;
33824;SDS011;20127;48.962;8.342;2022-12-07T00:26:14;23.30;;;14.55;;
33824;SDS011;20127;48.962;8.342;2022-12-07T00:29:18;25.80;;;15.20;;
33824;SDS011;20127;48.962;8.342;2022-12-07T00:32:21;22.95;;;15.80;;
33824;SDS011;20127;48.962;8.342;2022-12-07T00:35:23;22.88;;;16.33;;
33824;SDS011;20127;48.962;8.342;2022-12-07T00:38:26;29.23;;;16.60;;
33824;SDS011;20127;48.962;8.342;2022-12-07T00:41:30;29.50;;;17.88;;
33824;SDS011;20127;48.962;8.342;2022-12-07T00:44:32;28.20;;;16.98;;
33824;SDS011;20127;48.962;8.342;2022-12-07T00:47:33;24.70;;;15.75;;
33824;SDS011;20127;48.962;8.342;2022-12-07T00:50:35;25.80;;;16.60;;
33824;SDS011;20127;48.962;8.342;2022-12-07T00:53:38;26.40;;;16.45;;
33824;SDS011;20127;48.962;8.342;2022-12-07T00:56:40;25.63;;;16.50;;
33824;SDS011;20127;48.962;8.342;2022-12-07T00:59:42;27.92;;;16.17;;
33824;SDS011;20127;48.962;8.342;2022-12-07T01:02:43;23.20;;;16.48;;
33824;SDS011;20127;48.962;8.342;2022-12-07T01:05:49;34.03;;;21.52;;
33824;SDS011;20127;48.962;8.342;2022-12-07T01:08:53;26.67;;;16.20;;
33824;SDS011;20127;48.962;8.342;2022-12-07T01:11:55;30.67;;;16.80;;
33824;SDS011;20127;48.962;8.342;2022-12-07T01:14:57;27.27;;;15.40;;
33824;SDS011;20127;48.962;8.342;2022-12-07T01:17:58;23.63;;;17.80;;
33824;SDS011;20127;48.962;8.342;2022-12-07T01:21:01;36.35;;;19.75;;
33824;SDS011;20127;48.962;8.342;2022-12-07T01:24:06;29.90;;;18.38;;
33824;SDS011;20127;48.962;8.342;2022-12-07T01:27:11;22.77;;;16.07;;
33824;SDS011;20127;48.962;8.342;2022-12-07T01:30:13;27.00;;;17.90;;
33824;SDS011;20127;48.962;8.342;2022-12-07T01:33:15;30.85;;;18.30;;
33824;SDS011;20127;48.962;8.342;2022-12-07T01:36:17;25.83;;;16.38;;
33824;SDS011;20127;48.962;8.342;2022-12-07T01:39:22;30.35;;;17.60;;
33824;SDS011;20127;48.962;8.342;2022-12-07T01:42:24;30.88;;;15.88;;
33824;SDS011;20127;48.962;8.342;2022-12-07T01:45:37;26.42;;;18.88;;
33824;SDS011;20127;48.962;8.342;2022-12-07T01:48:42;28.95;;;17.30;;
33824;SDS011;20127;48.962;8.342;2022-12-07T01:51:44;26.65;;;19.42;;
33824;SDS011;20127;48.962;8.342;2022-12-07T01:54:50;29.20;;;19.45;;
33824;SDS011;20127;48.962;8.342;2022-12-07T01:57:54;29.00;;;18.58;;
33824;SDS011;20127;48.962;8.342;2022-12-07T02:00:56;29.27;;;18.77;;
33824;SDS011;20127;48.962;8.342;2022-12-07T02:03:58;33.85;;;19.27;;
33824;SDS011;20127;48.962;8.342;2022-12-07T02:07:00;30.90;;;17.13;;
33824;SDS011;20127;48.962;8.342;2022-12-07T02:10:12;35.50;;;18.95;;
33824;SDS011;20127;48.962;8.342;2022-12-07T02:13:15;29.98;;;18.95;;
33824;SDS011;20127;48.962;8.342;2022-12-07T02:16:23;27.52;;;17.98;;
33824;SDS011;20127;48.962;8.342;2022-12-07T02:19:39;39.53;;;19.63;;
33824;SDS011;20127;48.962;8.342;2022-12-07T02:23:14;28.05;;;18.27;;
33824;SDS011;20127;48.962;8.342;2022-12-07T02:26:42;26.63;;;20.15;;
33824;SDS011;20127;48.962;8.342;2022-12-07T02:29:57;31.70;;;18.70;;
33824;SDS011;20127;48.962;8.342;2022-12-07T02:33:03;37.80;;;19.80;;
33824;SDS011;20127;48.962;8.342;2022-12-07T02:36:08;34.72;;;22.23;;
33824;SDS011;20127;48.962;8.342;2022-12-07T02:39:15;38.25;;;21.60;;
33824;SDS011;20127;48.962;8.342;2022-12-07T02:42:22;32.72;;;18.45;;
33824;SDS011;20127;48.962;8.342;2022-12-07T02:48:32;37.22;;;20.85;;
33824;SDS011;20127;48.962;8.342;2022-12-07T02:51:38;32.10;;;21.30;;
33824;SDS011;20127;48.962;8.342;2022-12-07T02:54:41;32.35;;;21.20;;
33824;SDS011;20127;48.962;8.342;2022-12-07T02:57:48;39.25;;;18.85;;
33824;SDS011;20127;48.962;8.342;2022-12-07T03:01:22;32.70;;;20.83;;
33824;SDS011;20127;48.962;8.342;2022-12-07T03:04:32;36.17;;;21.10;;
33824;SDS011;20127;48.962;8.342;2022-12-07T03:07:45;33.35;;;21.35;;
33824;SDS011;20127;48.962;8.342;2022-12-07T03:10:54;31.85;;;20.00;;
33824;SDS011;20127;48.962;8.342;2022-12-07T03:13:59;38.10;;;20.08;;
33824;SDS011;20127;48.962;8.342;2022-12-07T03:17:08;35.67;;;21.07;;
33824;SDS011;20127;48.962;8.342;2022-12-07T03:20:16;42.40;;;19.80;;
33824;SDS011;20127;48.962;8.342;2022-12-07T03:23:22;34.33;;;20.73;;
33824;SDS011;20127;48.962;8.342;2022-12-07T03:26:28;33.75;;;18.90;;
33824;SDS011;20127;48.962;8.342;2022-12-07T03:29:34;39.83;;;22.17;;
33824;SDS011;20127;48.962;8.342;2022-12-07T03:32:41;33.30;;;20.63;;
33824;SDS011;20127;48.962;8.342;2022-12-07T03:35:47;34.38;;;19.27;;
33824;SDS011;20127;48.962;8.342;2022-12-07T03:38:54;34.35;;;18.38;;
33824;SDS011;20127;48.962;8.342;2022-12-07T03:42:03;35.88;;;20.33;;
33824;SDS011;20127;48.962;8.342;2022-12-07T03:45:08;30.40;;;17.60;;
33824;SDS011;20127;48.962;8.342;2022-12-07T03:48:14;32.63;;;20.70;;
33824;SDS011;20127;48.962;8.342;2022-12-07T03:51:25;40.50;;;20.65;;
33824;SDS011;20127;48.962;8.342;2022-12-07T03:54:33;32.05;;;19.48;;
33824;SDS011;20127;48.962;8.342;2022-12-07T03:57:38;33.45;;;22.65;;
33824;SDS011;20127;48.962;8.342;2022-12-07T04:00:43;35.05;;;18.83;;
33824;SDS011;20127;48.962;8.342;2022-12-07T04:03:46;33.78;;;20.25;;
33824;SDS011;20127;48.962;8.342;2022-12-07T04:06:48;36.83;;;21.35;;
33824;SDS011;20127;48.962;8.342;2022-12-07T04:09:50;36.17;;;21.85;;
33824;SDS011;20127;48.962;8.342;2022-12-07T04:12:52;36.03;;;19.80;;
33824;SDS011;20127;48.962;8.342;2022-12-07T04:15:53;36.03;;;21.98;;
33824;SDS011;20127;48.962;8.342;2022-12-07T04:18:56;35.35;;;20.02;;
33824;SDS011;20127;48.962;8.342;2022-12-07T04:21:58;36.33;;;22.15;;
33824;SDS011;20127;48.962;8.342;2022-12-07T04:25:01;35.40;;;21.50;;
33824;SDS011;20127;48.962;8.342;2022-12-07T04:28:03;35.70;;;21.45;;
33824;SDS011;20127;48.962;8.342;2022-12-07T04:31:05;33.10;;;20.40;;
33824;SDS011;20127;48.962;8.342;2022-12-07T04:34:08;37.67;;;21.30;;
33824;SDS011;20127;48.962;8.342;2022-12-07T04:37:10;32.30;;;21.00;;
33824;SDS011;20127;48.962;8.342;2022-12-07T04:40:12;35.33;;;19.45;;
33824;SDS011;20127;48.962;8.342;2022-12-07T04:43:14;39.83;;;21.20;;
33824;SDS011;20127;48.962;8.342;2022-12-07T04:46:16;45.42;;;22.33;;
33824;SDS011;20127;48.962;8.342;2022-12-07T04:49:19;37.72;;;21.55;;
33824;SDS011;20127;48.962;8.342;2022-12-07T04:52:21;40.53;;;23.23;;
33824;SDS011;20127;48.962;8.342;2022-12-07T04:55:23;33.83;;;21.08;;
33824;SDS011;20127;48.962;8.342;2022-12-07T04:58:24;34.83;;;20.30;;
33824;SDS011;20127;48.962;8.342;2022-12-07T05:01:26;35.30;;;23.10;;
33824;SDS011;20127;48.962;8.342;2022-12-07T05:04:29;35.58;;;20.38;;
33824;SDS011;20127;48.962;8.342;2022-12-07T05:07:31;34.00;;;20.02;;
33824;SDS011;20127;48.962;8.342;2022-12-07T05:10:32;31.70;;;19.02;;
33824;SDS011;20127;48.962;8.342;2022-12-07T05:13:34;40.28;;;21.52;;
33824;SDS011;20127;48.962;8.342;2022-12-07T05:16:36;33.50;;;18.42;;
33824;SDS011;20127;48.962;8.342;2022-12-07T05:19:40;37.30;;;20.05;;
33824;SDS011;20127;48.962;8.342;2022-12-07T05:22:41;33.22;;;19.17;;
33824;SDS011;20127;48.962;8.342;2022-12-07T05:25:43;33.65;;;20.75;;
33824;SDS011;20127;48.962;8.342;2022-12-07T05:28:49;32.63;;;18.40;;
33824;SDS011;20127;48.962;8.342;2022-12-07T05:31:51;27.80;;;19.48;;
33824;SDS011;20127;48.962;8.342;2022-12-07T05:34:54;32.65;;;20.80;;
33824;SDS011;20127;48.962;8.342;2022-12-07T05:37:56;31.98;;;19.77;;
33824;SDS011;20127;48.962;8.342;2022-12-07T05:40:59;30.67;;;17.63;;
33824;SDS011;20127;48.962;8.342;2022-12-07T05:44:02;30.80;;;18.90;;
33824;SDS011;20127;48.962;8.342;2022-12-07T05:47:04;30.92;;;17.67;;
33824;SDS011;20127;48.962;8.342;2022-12-07T05:50:07;32.53;;;18.73;;
33824;SDS011;20127;48.962;8.342;2022-12-07T05:53:09;32.70;;;19.85;;
33824;SDS011;20127;48.962;8.342;2022-12-07T05:56:11;30.95;;;18.60;;
33824;SDS011;20127;48.962;8.342;2022-12-07T05:59:13;30.60;;;18.48;;
33824;SDS011;20127;48.962;8.342;2022-12-07T06:02:23;30.48;;;19.73;;
33824;SDS011;20127;48.962;8.342;2022-12-07T06:05:26;31.80;;;18.92;;
33824;SDS011;20127;48.962;8.342;2022-12-07T06:08:28;30.73;;;17.75;;
33824;SDS011;20127;48.962;8.342;2022-12-07T06:11:30;33.30;;;19.33;;
33824;SDS011;20127;48.962;8.342;2022-12-07T06:14:49;31.13;;;20.10;;
33824;SDS011;20127;48.962;8.342;2022-12-07T06:17:51;33.47;;;19.58;;
33824;SDS011;20127;48.962;8.342;2022-12-07T06:20:54;29.13;;;17.05;;
33824;SDS011;20127;48.962;8.342;2022-12-07T06:23:55;30.75;;;19.95;;
33824;SDS011;20127;48.962;8.342;2022-12-07T06:26:57;29.77;;;18.75;;
33824;SDS011;20127;48.962;8.342;2022-12-07T06:29:59;35.65;;;18.00;;
33824;SDS011;20127;48.962;8.342;2022-12-07T06:33:06;27.42;;;17.00;;
33824;SDS011;20127;48.962;8.342;2022-12-07T06:36:09;29.13;;;17.80;;
33824;SDS011;20127;48.962;8.342;2022-12-07T06:39:11;28.05;;;17.98;;
33824;SDS011;20127;48.962;8.342;2022-12-07T06:42:13;29.95;;;16.80;;
33824;SDS011;20127;48.962;8.342;2022-12-07T06:45:15;27.65;;;16.20;;
33824;SDS011;20127;48.962;8.342;2022-12-07T06:48:16;25.70;;;17.88;;
33824;SDS011;20127;48.962;8.342;2022-12-07T06:51:19;29.17;;;18.83;;
33824;SDS011;20127;48.962;8.342;2022-12-07T06:54:21;25.58;;;15.88;;
33824;SDS011;20127;48.962;8.342;2022-12-07T06:57:23;24.30;;;16.63;;
33824;SDS011;20127;48.962;8.342;2022-12-07T07:00:25;26.80;;;18.25;;
33824;SDS011;20127;48.962;8.342;2022-12-07T07:03:26;22.48;;;14.90;;
33824;SDS011;20127;48.962;8.342;2022-12-07T07:06:29;26.35;;;15.80;;
33824;SDS011;20127;48.962;8.342;2022-12-07T07:09:31;21.58;;;15.10;;
33824;SDS011;20127;48.962;8.342;2022-12-07T07:12:33;25.92;;;17.63;;
33824;SDS011;20127;48.962;8.342;2022-12-07T07:15:34;29.90;;;15.57;;
33824;SDS011;20127;48.962;8.342;2022-12-07T07:18:40;28.63;;;17.88;;
33824;SDS011;20127;48.962;8.342;2022-12-07T07:21:46;22.75;;;14.80;;
33824;SDS011;20127;48.962;8.342;2022-12-07T07:24:47;24.35;;;15.85;;
33824;SDS011;20127;48.962;8.342;2022-12-07T07:27:49;26.60;;;16.23;;
33824;SDS011;20127;48.962;8.342;2022-12-07T07:30:51;29.02;;;17.77;;
33824;SDS011;20127;48.962;8.342;2022-12-07T07:33:53;23.27;;;15.15;;
33824;SDS011;20127;48.962;8.342;2022-12-07T07:36:56;23.77;;;16.05;;
33824;SDS011;20127;48.962;8.342;2022-12-07T07:39:57;29.77;;;15.02;;
33824;SDS011;20127;48.962;8.342;2022-12-07T07:42:59;22.20;;;14.77;;
33824;SDS011;20127;48.962;8.342;2022-12-07T07:46:01;18.85;;;14.35;;
33824;SDS011;20127;48.962;8.342;2022-12-07T07:49:02;26.30;;;17.75;;
33824;SDS011;20127;48.962;8.342;2022-12-07T07:52:06;22.73;;;14.43;;
33824;SDS011;20127;48.962;8.342;2022-12-07T07:55:08;25.60;;;16.00;;
33824;SDS011;20127;48.962;8.342;2022-12-07T07:58:09;21.27;;;15.13;;
33824;SDS011;20127;48.962;8.342;2022-12-07T08:01:11;26.75;;;15.90;;
33824;SDS011;20127;48.962;8.342;2022-12-07T08:04:13;20.55;;;14.80;;
33824;SDS011;20127;48.962;8.342;2022-12-07T08:07:16;20.67;;;14.40;;
33824;SDS011;20127;48.962;8.342;2022-12-07T08:10:18;22.58;;;14.23;;
33824;SDS011;20127;48.962;8.342;2022-12-07T08:13:20;19.95;;;13.85;;
33824;SDS011;20127;48.962;8.342;2022-12-07T08:16:22;22.58;;;13.70;;
33824;SDS011;20127;48.962;8.342;2022-12-07T08:19:23;18.45;;;12.35;;
33824;SDS011;20127;48.962;8.342;2022-12-07T08:22:26;20.08;;;12.25;;
33824;SDS011;20127;48.962;8.342;2022-12-07T08:25:28;22.00;;;14.05;;
33824;SDS011;20127;48.962;8.342;2022-12-07T08:28:30;15.63;;;11.68;;
33824;SDS011;20127;48.962;8.342;2022-12-07T08:31:32;17.42;;;11.65;;
33824;SDS011;20127;48.962;8.342;2022-12-07T08:34:34;18.45;;;12.32;;
33824;SDS011;20127;48.962;8.342;2022-12-07T08:37:38;21.17;;;12.45;;
33824;SDS011;20127;48.962;8.342;2022-12-07T08:40:40;18.55;;;13.40;;
33824;SDS011;20127;48.962;8.342;2022-12-07T08:43:41;20.77;;;12.85;;
33824;SDS011;20127;48.962;8.342;2022-12-07T08:46:44;19.30;;;12.93;;
33824;SDS011;20127;48.962;8.342;2022-12-07T08:49:49;20.48;;;10.45;;
33824;SDS011;20127;48.962;8.342;2022-12-07T08:52:54;17.98;;;12.45;;
33824;SDS011;20127;48.962;8.342;2022-12-07T08:55:58;18.13;;;11.68;;
33824;SDS011;20127;48.962;8.342;2022-12-07T08:58:59;17.20;;;11.15;;
33824;SDS011;20127;48.962;8.342;2022-12-07T09:02:01;18.38;;;12.13;;
33824;SDS011;20127;48.962;8.342;2022-12-07T09:05:03;15.93;;;9.65;;
33824;SDS011;20127;48.962;8.342;2022-12-07T09:08:06;16.75;;;11.65;;
33824;SDS011;20127;48.962;8.342;2022-12-07T09:11:08;16.67;;;11.25;;
33824;SDS011;20127;48.962;8.342;2022-12-07T09:14:10;19.17;;;10.73;;
33824;SDS011;20127;48.962;8.342;2022-12-07T09:17:12;17.25;;;10.85;;
33824;SDS011;20127;48.962;8.342;2022-12-07T09:20:14;18.75;;;12.02;;
33824;SDS011;20127;48.962;8.342;2022-12-07T09:23:17;16.65;;;11.02;;
33824;SDS011;20127;48.962;8.342;2022-12-07T09:26:19;17.25;;;11.35;;
33824;SDS011;20127;48.962;8.342;2022-12-07T09:29:21;16.92;;;10.95;;
33824;SDS011;20127;48.962;8.342;2022-12-07T09:32:23;18.88;;;11.63;;
33824;SDS011;20127;48.962;8.342;2022-12-07T09:35:24;17.45;;;9.90;;
33824;SDS011;20127;48.962;8.342;2022-12-07T09:38:28;16.83;;;10.55;;
33824;SDS011;20127;48.962;8.342;2022-12-07T09:41:32;16.30;;;9.10;;
33824;SDS011;20127;48.962;8.342;2022-12-07T09:44:34;17.40;;;11.02;;
33824;SDS011;20127;48.962;8.342;2022-12-07T09:47:37;14.98;;;10.98;;
33824;SDS011;20127;48.962;8.342;2022-12-07T09:50:39;18.08;;;11.40;;
33824;SDS011;20127;48.962;8.342;2022-12-07T09:53:42;14.48;;;10.88;;
33824;SDS011;20127;48.962;8.342;2022-12-07T09:56:44;15.65;;;10.13;;
33824;SDS011;20127;48.962;8.342;2022-12-07T09:59:46;14.82;;;9.60;;
33824;SDS011;20127;48.962;8.342;2022-12-07T10:02:49;14.98;;;9.18;;
33824;SDS011;20127;48.962;8.342;2022-12-07T10:05:54;14.48;;;9.95;;
33824;SDS011;20127;48.962;8.342;2022-12-07T10:08:58;19.00;;;10.20;;
33824;SDS011;20127;48.962;8.342;2022-12-07T10:12:01;16.10;;;9.63;;
33824;SDS011;20127;48.962;8.342;2022-12-07T10:15:04;13.43;;;9.23;;
33824;SDS011;20127;48.962;8.342;2022-12-07T10:18:14;16.80;;;11.00;;
33824;SDS011;20127;48.962;8.342;2022-12-07T10:21:19;14.18;;;10.05;;
33824;SDS011;20127;48.962;8.342;2022-12-07T10:24:25;15.43;;;9.85;;
33824;SDS011;20127;48.962;8.342;2022-12-07T10:27:29;16.13;;;10.13;;
33824;SDS011;20127;48.962;8.342;2022-12-07T10:30:32;15.68;;;9.93;;
33824;SDS011;20127;48.962;8.342;2022-12-07T10:33:50;16.40;;;10.68;;
33824;SDS011;20127;48.962;8.342;2022-12-07T10:36:54;21.92;;;10.45;;
33824;SDS011;20127;48.962;8.342;2022-12-07T10:40:25;14.00;;;8.55;;
33824;SDS011;20127;48.962;8.342;2022-12-07T10:43:29;14.25;;;9.45;;
33824;SDS011;20127;48.962;8.342;2022-12-07T10:46:43;13.48;;;10.23;;
33824;SDS011;20127;48.962;8.342;2022-12-07T10:53:38;13.15;;;9.15;;
33824;SDS011;20127;48.962;8.342;2022-12-07T11:00:18;22.42;;;11.70;;
33824;SDS011;20127;48.962;8.342;2022-12-07T11:03:35;19.70;;;10.57;;
33824;SDS011;20127;48.962;8.342;2022-12-07T11:06:44;17.30;;;10.75;;
33824;SDS011;20127;48.962;8.342;2022-12-07T11:09:56;18.10;;;11.38;;
33824;SDS011;20127;48.962;8.342;2022-12-07T11:16:43;16.35;;;11.50;;
33824;SDS011;20127;48.962;8.342;2022-12-07T11:20:00;21.00;;;13.32;;
33824;SDS011;20127;48.962;8.342;2022-12-07T11:23:11;15.52;;;11.27;;
33824;SDS011;20127;48.962;8.342;2022-12-07T11:26:23;17.77;;;12.50;;
33824;SDS011;20127;48.962;8.342;2022-12-07T11:29:49;18.08;;;10.80;;
33824;SDS011;20127;48.962;8.342;2022-12-07T11:33:02;16.65;;;12.20;;
33824;SDS011;20127;48.962;8.342;2022-12-07T11:36:17;19.00;;;12.13;;
33824;SDS011;20127;48.962;8.342;2022-12-07T11:39:33;22.50;;;13.60;;
33824;SDS011;20127;48.962;8.342;2022-12-07T11:42:38;21.33;;;12.35;;
33824;SDS011;20127;48.962;8.342;2022-12-07T11:45:46;22.63;;;14.15;;
33824;SDS011;20127;48.962;8.342;2022-12-07T11:48:55;23.23;;;12.75;;
33824;SDS011;20127;48.962;8.342;2022-12-07T11:52:02;15.75;;;12.65;;
33824;SDS011;20127;48.962;8.342;2022-12-07T11:55:13;19.55;;;14.02;;
33824;SDS011;20127;48.962;8.342;2022-12-07T11:58:22;18.45;;;13.55;;
33824;SDS011;20127;48.962;8.342;2022-12-07T12:01:41;20.77;;;12.95;;
33824;SDS011;20127;48.962;8.342;2022-12-07T12:04:54;19.58;;;12.23;;
33824;SDS011;20127;48.962;8.342;2022-12-07T12:08:01;16.42;;;11.77;;
33824;SDS011;20127;48.962;8.342;2022-12-07T12:11:13;18.60;;;11.88;;
33824;SDS011;20127;48.962;8.342;2022-12-07T12:14:30;18.85;;;14.07;;
33824;SDS011;20127;48.962;8.342;2022-12-07T12:21:33;23.98;;;13.70;;
33824;SDS011;20127;48.962;8.342;2022-12-07T12:24:36;20.15;;;12.57;;
33824;SDS011;20127;48.962;8.342;2022-12-07T12:27:40;21.85;;;13.98;;
33824;SDS011;20127;48.962;8.342;2022-12-07T12:37:40;19.20;;;12.38;;
33824;SDS011;20127;48.962;8.342;2022-12-07T12:40:44;19.65;;;12.82;;
33824;SDS011;20127;48.962;8.342;2022-12-07T12:43:47;29.73;;;22.88;;
33824;SDS011;20127;48.962;8.342;2022-12-07T12:46:52;31.88;;;23.55;;
33824;SDS011;20127;48.962;8.342;2022-12-07T12:50:10;19.73;;;13.90;;
33824;SDS011;20127;48.962;8.342;2022-12-07T12:53:21;25.38;;;15.48;;
33824;SDS011;20127;48.962;8.342;2022-12-07T12:56:27;23.42;;;14.63;;
33824;SDS011;20127;48.962;8.342;2022-12-07T12:59:38;23.13;;;14.20;;
33824;SDS011;20127;48.962;8.342;2022-12-07T13:02:47;22.95;;;12.82;;
33824;SDS011;20127;48.962;8.342;2022-12-07T13:05:57;23.25;;;15.18;;
33824;SDS011;20127;48.962;8.342;2022-12-07T13:09:21;23.17;;;14.10;;
33824;SDS011;20127;48.962;8.342;2022-12-07T13:12:25;40.90;;;29.98;;
33824;SDS011;20127;48.962;8.342;2022-12-07T13:15:37;32.63;;;21.27;;
33824;SDS011;20127;48.962;8.342;2022-12-07T13:18:39;20.73;;;14.00;;
33824;SDS011;20127;48.962;8.342;2022-12-07T13:21:42;25.10;;;19.38;;
33824;SDS011;20127;48.962;8.342;2022-12-07T13:24:47;25.83;;;15.95;;
33824;SDS011;20127;48.962;8.342;2022-12-07T13:27:50;21.55;;;11.73;;
33824;SDS011;20127;48.962;8.342;2022-12-07T13:34:03;21.15;;;14.07;;
33824;SDS011;20127;48.962;8.342;2022-12-07T13:37:09;16.98;;;12.48;;
33824;SDS011;20127;48.962;8.342;2022-12-07T13:40:17;27.20;;;20.08;;
33824;SDS011;20127;48.962;8.342;2022-12-07T13:43:20;42.72;;;36.70;;
33824;SDS011;20127;48.962;8.342;2022-12-07T13:46:24;24.17;;;15.73;;
33824;SDS011;20127;48.962;8.342;2022-12-07T13:49:29;21.02;;;15.95;;
33824;SDS011;20127;48.962;8.342;2022-12-07T13:52:31;21.40;;;16.50;;
33824;SDS011;20127;48.962;8.342;2022-12-07T13:55:34;23.35;;;15.93;;
33824;SDS011;20127;48.962;8.342;2022-12-07T13:58:36;19.23;;;13.50;;
33824;SDS011;20127;48.962;8.342;2022-12-07T14:01:38;15.23;;;10.70;;
33824;SDS011;20127;48.962;8.342;2022-12-07T14:04:39;18.52;;;12.32;;
33824;SDS011;20127;48.962;8.342;2022-12-07T14:07:48;65.50;;;36.60;;
33824;SDS011;20127;48.962;8.342;2022-12-07T14:10:55;26.30;;;19.48;;
33824;SDS011;20127;48.962;8.342;2022-12-07T14:13:58;17.40;;;10.23;;
33824;SDS011;20127;48.962;8.342;2022-12-07T14:17:02;13.75;;;8.93;;
33824;SDS011;20127;48.962;8.342;2022-12-07T14:20:28;16.10;;;10.88;;
33824;SDS011;20127;48.962;8.342;2022-12-07T14:23:30;13.73;;;10.18;;
33824;SDS011;20127;48.962;8.342;2022-12-07T14:26:33;13.77;;;10.20;;
33824;SDS011;20127;48.962;8.342;2022-12-07T14:29:35;11.82;;;8.63;;
33824;SDS011;20127;48.962;8.342;2022-12-07T14:32:38;16.02;;;10.15;;
33824;SDS011;20127;48.962;8.342;2022-12-07T14:35:40;12.57;;;9.02;;
33824;SDS011;20127;48.962;8.342;2022-12-07T14:38:42;15.38;;;8.80;;
33824;SDS011;20127;48.962;8.342;2022-12-07T14:41:46;17.90;;;10.43;;
33824;SDS011;20127;48.962;8.342;2022-12-07T14:44:54;10.88;;;8.23;;
33824;SDS011;20127;48.962;8.342;2022-12-07T14:47:55;12.75;;;8.90;;
33824;SDS011;20127;48.962;8.342;2022-12-07T14:50:57;14.45;;;9.95;;
33824;SDS011;20127;48.962;8.342;2022-12-07T14:53:59;13.05;;;8.75;;
33824;SDS011;20127;48.962;8.342;2022-12-07T14:57:02;15.60;;;10.32;;
33824;SDS011;20127;48.962;8.342;2022-12-07T15:00:04;10.43;;;8.30;;
33824;SDS011;20127;48.962;8.342;2022-12-07T15:03:07;13.40;;;8.68;;
33824;SDS011;20127;48.962;8.342;2022-12-07T15:06:10;13.57;;;8.55;;
33824;SDS011;20127;48.962;8.342;2022-12-07T15:09:15;13.77;;;9.55;;
33824;SDS011;20127;48.962;8.342;2022-12-07T15:12:18;13.38;;;9.50;;
33824;SDS011;20127;48.962;8.342;2022-12-07T15:15:19;15.05;;;9.75;;
33824;SDS011;20127;48.962;8.342;2022-12-07T15:18:22;13.20;;;10.18;;
33824;SDS011;20127;48.962;8.342;2022-12-07T15:21:24;17.65;;;12.38;;
33824;SDS011;20127;48.962;8.342;2022-12-07T15:24:26;17.10;;;9.82;;
33824;SDS011;20127;48.962;8.342;2022-12-07T15:27:29;15.95;;;10.23;;
33824;SDS011;20127;48.962;8.342;2022-12-07T15:30:31;12.05;;;9.32;;
33824;SDS011;20127;48.962;8.342;2022-12-07T15:33:33;15.35;;;8.88;;
33824;SDS011;20127;48.962;8.342;2022-12-07T15:36:35;15.57;;;9.85;;
33824;SDS011;20127;48.962;8.342;2022-12-07T15:39:37;15.38;;;9.00;;
33824;SDS011;20127;48.962;8.342;2022-12-07T15:42:40;16.60;;;10.65;;
33824;SDS011;20127;48.962;8.342;2022-12-07T15:45:42;13.45;;;9.07;;
33824;SDS011;20127;48.962;8.342;2022-12-07T15:48:42;14.75;;;9.02;;
33824;SDS011;20127;48.962;8.342;2022-12-07T15:51:46;12.75;;;8.85;;
33824;SDS011;20127;48.962;8.342;2022-12-07T15:54:48;15.65;;;9.63;;
33824;SDS011;20127;48.962;8.342;2022-12-07T15:57:51;15.07;;;10.23;;
33824;SDS011;20127;48.962;8.342;2022-12-07T16:00:53;13.73;;;10.35;;
33824;SDS011;20127;48.962;8.342;2022-12-07T16:03:56;16.58;;;11.75;;
33824;SDS011;20127;48.962;8.342;2022-12-07T16:06:59;17.05;;;9.52;;
33824;SDS011;20127;48.962;8.342;2022-12-07T16:10:00;15.98;;;9.15;;
33824;SDS011;20127;48.962;8.342;2022-12-07T16:13:03;17.52;;;10.30;;
33824;SDS011;20127;48.962;8.342;2022-12-07T16:16:05;13.55;;;9.07;;
33824;SDS011;20127;48.962;8.342;2022-12-07T16:19:09;15.30;;;10.27;;
33824;SDS011;20127;48.962;8.342;2022-12-07T16:22:11;17.98;;;10.32;;
33824;SDS011;20127;48.962;8.342;2022-12-07T16:25:13;25.58;;;12.27;;
33824;SDS011;20127;48.962;8.342;2022-12-07T16:28:16;17.77;;;10.38;;
33824;SDS011;20127;48.962;8.342;2022-12-07T16:31:19;13.63;;;9.82;;
33824;SDS011;20127;48.962;8.342;2022-12-07T16:34:23;17.48;;;10.77;;
33824;SDS011;20127;48.962;8.342;2022-12-07T16:37:24;20.73;;;10.40;;
33824;SDS011;20127;48.962;8.342;2022-12-07T16:40:26;16.95;;;10.35;;
33824;SDS011;20127;48.962;8.342;2022-12-07T16:43:29;16.33;;;10.68;;
33824;SDS011;20127;48.962;8.342;2022-12-07T16:46:31;14.65;;;10.52;;
33824;SDS011;20127;48.962;8.342;2022-12-07T16:49:33;17.45;;;11.75;;
33824;SDS011;20127;48.962;8.342;2022-12-07T16:52:39;22.33;;;14.30;;
33824;SDS011;20127;48.962;8.342;2022-12-07T16:55:43;18.75;;;12.13;;
33824;SDS011;20127;48.962;8.342;2022-12-07T16:58:47;15.48;;;11.50;;
33824;SDS011;20127;48.962;8.342;2022-12-07T17:01:49;19.25;;;11.20;;
33824;SDS011;20127;48.962;8.342;2022-12-07T17:04:52;17.90;;;10.95;;
33824;SDS011;20127;48.962;8.342;2022-12-07T17:07:54;21.52;;;13.55;;
33824;SDS011;20127;48.962;8.342;2022-12-07T17:10:56;21.42;;;11.93;;
33824;SDS011;20127;48.962;8.342;2022-12-07T17:14:00;21.55;;;11.70;;
33824;SDS011;20127;48.962;8.342;2022-12-07T17:17:19;21.92;;;12.90;;
33824;SDS011;20127;48.962;8.342;2022-12-07T17:20:21;15.98;;;9.93;;
33824;SDS011;20127;48.962;8.342;2022-12-07T17:23:24;18.88;;;12.02;;
33824;SDS011;20127;48.962;8.342;2022-12-07T17:26:26;15.65;;;11.45;;
33824;SDS011;20127;48.962;8.342;2022-12-07T17:29:30;23.02;;;13.25;;
33824;SDS011;20127;48.962;8.342;2022-12-07T17:32:32;21.42;;;12.27;;
33824;SDS011;20127;48.962;8.342;2022-12-07T17:35:34;23.83;;;13.27;;
33824;SDS011;20127;48.962;8.342;2022-12-07T17:38:36;20.35;;;10.82;;
33824;SDS011;20127;48.962;8.342;2022-12-07T17:41:38;23.85;;;14.27;;
33824;SDS011;20127;48.962;8.342;2022-12-07T17:44:58;22.08;;;14.20;;
33824;SDS011;20127;48.962;8.342;2022-12-07T17:48:00;19.42;;;12.90;;
33824;SDS011;20127;48.962;8.342;2022-12-07T17:51:02;18.88;;;11.50;;
33824;SDS011;20127;48.962;8.342;2022-12-07T17:54:22;17.88;;;13.25;;
33824;SDS011;20127;48.962;8.342;2022-12-07T17:57:24;16.85;;;11.52;;
33824;SDS011;20127;48.962;8.342;2022-12-07T18:00:28;21.63;;;12.05;;
33824;SDS011;20127;48.962;8.342;2022-12-07T18:03:30;21.20;;;14.40;;
33824;SDS011;20127;48.962;8.342;2022-12-07T18:06:32;26.77;;;12.55;;
33824;SDS011;20127;48.962;8.342;2022-12-07T18:09:34;23.80;;;13.23;;
33824;SDS011;20127;48.962;8.342;2022-12-07T18:12:36;23.70;;;13.80;;
33824;SDS011;20127;48.962;8.342;2022-12-07T18:15:40;18.95;;;11.05;;
33824;SDS011;20127;48.962;8.342;2022-12-07T18:18:42;22.02;;;11.85;;
33824;SDS011;20127;48.962;8.342;2022-12-07T18:21:45;19.27;;;12.82;;
33824;SDS011;20127;48.962;8.342;2022-12-07T18:24:47;23.48;;;11.93;;
33824;SDS011;20127;48.962;8.342;2022-12-07T18:27:48;26.30;;;13.60;;
33824;SDS011;20127;48.962;8.342;2022-12-07T18:30:51;20.10;;;12.95;;